createdAt,value
2023-01-25T00:02:20.034Z,97366.13
2023-01-25T00:04:48.382Z,97352.50
2023-01-25T00:07:16.294Z,97363.69
2023-01-25T00:09:44.439Z,97361.38
2023-01-25T00:12:13.254Z,97343.56
2023-01-25T00:14:43.152Z,97369.09
2023-01-25T00:17:12.583Z,97372.94
2023-01-25T00:19:40.610Z,97369.97
2023-01-25T00:22:08.747Z,97333.09
2023-01-25T00:24:37.561Z,97360.84
2023-01-25T00:27:05.529Z,97353.13
2023-01-25T00:29:34.237Z,97368.81
2023-01-25T00:32:38.526Z,97369.78
2023-01-25T00:35:12.638Z,97375.53
2023-01-25T00:37:44.483Z,97371.16
2023-01-25T00:40:14.499Z,97363.72
2023-01-25T00:42:43.814Z,97364.59
2023-01-25T00:45:13.602Z,97368.63
2023-01-25T00:47:43.665Z,97356.28
2023-01-25T00:50:12.669Z,97358.78
2023-01-25T00:52:42.039Z,97360.75
2023-01-25T00:55:10.909Z,97354.88
2023-01-25T00:57:38.945Z,97358.88
2023-01-25T01:00:08.456Z,97356.19
2023-01-25T01:02:36.768Z,97360.47
2023-01-25T01:05:07.372Z,97359.16
2023-01-25T01:07:36.135Z,97358.88
2023-01-25T01:10:04.947Z,97360.16
2023-01-25T01:12:33.263Z,97358.25
2023-01-25T01:15:01.595Z,97367.03
2023-01-25T01:17:29.771Z,97356.03
2023-01-25T01:19:57.770Z,97361.03
2023-01-25T01:22:27.561Z,97358.09
2023-01-25T01:24:55.571Z,97358.63
2023-01-25T01:27:24.171Z,97343.41
2023-01-25T01:29:52.425Z,97346.63
2023-01-25T01:32:21.303Z,97339.91
2023-01-25T01:34:52.059Z,97340.50
2023-01-25T01:37:20.609Z,97341.97
2023-01-25T01:39:50.021Z,97332.19
2023-01-25T01:42:18.090Z,97334.78
2023-01-25T01:44:49.132Z,97340.25
2023-01-25T01:47:23.228Z,97336.69
2023-01-25T01:49:58.954Z,97337.84
2023-01-25T01:52:34.668Z,97336.41
2023-01-25T01:55:12.811Z,97344.56
2023-01-25T01:57:49.301Z,97344.72
2023-01-25T02:00:22.378Z,97340.59
2023-01-25T02:02:52.595Z,97338.28
2023-01-25T02:05:27.306Z,97331.41
2023-01-25T02:07:57.050Z,97344.94
2023-01-25T02:10:29.572Z,97351.19
2023-01-25T02:12:59.398Z,97340.53
2023-01-25T02:15:30.053Z,97330.41
2023-01-25T02:17:58.844Z,97331.25
2023-01-25T02:20:37.530Z,97340.88
2023-01-25T02:23:12.715Z,97337.38
2023-01-25T02:25:44.957Z,97340.25
2023-01-25T02:28:17.750Z,97330.03
2023-01-25T02:30:47.048Z,97333.19
2023-01-25T02:33:18.464Z,97333.19
2023-01-25T02:35:50.334Z,97337.94
2023-01-25T02:38:21.469Z,97333.38
2023-01-25T02:41:02.473Z,97332.84
2023-01-25T02:43:35.562Z,97337.13
2023-01-25T02:46:15.372Z,97328.81
2023-01-25T02:48:46.601Z,97306.34
2023-01-25T02:51:15.291Z,97320.38
2023-01-25T02:53:43.336Z,97323.78
2023-01-25T02:56:12.305Z,97315.63
2023-01-25T02:58:39.930Z,97305.53
2023-01-25T03:01:07.637Z,97326.72
2023-01-25T03:03:35.362Z,97324.78
2023-01-25T03:06:03.149Z,97323.25
2023-01-25T03:08:31.080Z,97310.53
2023-01-25T03:10:59.567Z,97314.00
2023-01-25T03:13:30.937Z,97312.59
2023-01-25T03:16:01.435Z,97312.78
2023-01-25T03:18:29.461Z,97296.41
2023-01-25T03:20:57.328Z,97308.28
2023-01-25T03:23:25.064Z,97302.91
2023-01-25T03:25:54.311Z,97313.47
2023-01-25T03:28:22.035Z,97302.03
2023-01-25T03:30:55.112Z,97307.59
2023-01-25T03:33:22.864Z,97298.88
2023-01-25T03:35:53.279Z,97304.53
2023-01-25T03:38:21.631Z,97297.13
2023-01-25T03:40:49.366Z,97300.00
2023-01-25T03:43:17.480Z,97300.25
2023-01-25T03:45:53.684Z,97304.81
2023-01-25T03:48:23.555Z,97303.28
2023-01-25T03:50:52.687Z,97293.25
2023-01-25T03:53:29.163Z,97276.88
2023-01-25T03:56:04.519Z,97293.78
2023-01-25T03:58:32.727Z,97294.50
2023-01-25T04:01:01.899Z,97271.69
2023-01-25T04:03:31.628Z,97295.59
2023-01-25T04:06:01.178Z,97294.03
2023-01-25T04:08:30.789Z,97291.25
2023-01-25T04:11:03.108Z,97296.13
2023-01-25T04:13:30.748Z,97291.13
2023-01-25T04:15:58.743Z,97292.38
2023-01-25T04:18:47.973Z,97287.97
2023-01-25T04:21:15.886Z,97280.53
2023-01-25T04:23:44.099Z,97280.38
2023-01-25T04:26:12.646Z,97270.19
2023-01-25T04:28:41.244Z,97285.03
2023-01-25T04:31:09.012Z,97287.00
2023-01-25T04:33:41.003Z,97268.03
2023-01-25T04:36:11.198Z,97274.56
2023-01-25T04:38:39.194Z,97276.25
2023-01-25T04:41:07.265Z,97278.84
2023-01-25T04:43:35.378Z,97248.44
2023-01-25T04:46:08.027Z,97265.97
2023-01-25T04:48:35.765Z,97264.06
2023-01-25T04:51:07.005Z,97263.63
2023-01-25T04:53:36.919Z,97223.63
2023-01-25T04:56:07.779Z,97258.72
2023-01-25T04:58:44.451Z,97251.44
2023-01-25T05:01:13.331Z,97264.63
2023-01-25T05:03:41.218Z,97258.72
2023-01-25T05:06:17.037Z,97260.06
2023-01-25T05:08:46.499Z,97255.13
2023-01-25T05:11:14.330Z,97255.66
2023-01-25T05:13:51.915Z,97236.16
2023-01-25T05:16:25.605Z,97254.22
2023-01-25T05:18:53.281Z,97247.16
2023-01-25T05:21:44.638Z,97233.19
2023-01-25T05:24:15.849Z,97238.31
2023-01-25T05:27:03.650Z,97237.22
2023-01-25T05:29:49.604Z,97235.41
2023-01-25T05:32:20.196Z,97234.44
2023-01-25T05:34:48.851Z,97218.78
2023-01-25T05:37:19.766Z,97244.81
2023-01-25T05:39:51.339Z,97228.22
2023-01-25T05:42:20.177Z,97251.81
2023-01-25T05:44:48.594Z,97246.19
2023-01-25T05:47:18.614Z,97239.38
2023-01-25T05:49:46.310Z,97240.13
2023-01-25T05:52:21.683Z,97242.41
2023-01-25T05:54:51.096Z,97248.53
2023-01-25T05:57:18.969Z,97239.13
2023-01-25T05:59:46.817Z,97237.84
2023-01-25T06:02:19.075Z,97235.53
2023-01-25T06:04:47.050Z,97237.16
2023-01-25T06:07:15.332Z,97236.31
2023-01-25T06:09:43.447Z,97231.94
2023-01-25T06:12:12.520Z,97238.31
2023-01-25T06:14:40.196Z,97235.00
2023-01-25T06:17:08.038Z,97229.56
2023-01-25T06:19:57.063Z,97233.94
2023-01-25T06:22:35.443Z,97230.28
2023-01-25T06:25:03.058Z,97224.00
2023-01-25T06:27:32.395Z,97217.47
2023-01-25T06:30:00.122Z,97224.34
2023-01-25T06:32:33.107Z,97215.63
2023-01-25T06:35:00.686Z,97213.72
2023-01-25T06:37:28.465Z,97213.59
2023-01-25T06:39:56.058Z,97208.59
2023-01-25T06:42:25.257Z,97206.69
2023-01-25T06:44:54.222Z,97205.47
2023-01-25T06:47:21.879Z,97204.22
2023-01-25T06:49:49.506Z,97205.03
2023-01-25T06:52:17.103Z,97210.28
2023-01-25T06:54:44.691Z,97208.22
2023-01-25T06:57:12.898Z,97198.13
2023-01-25T06:59:40.523Z,97177.47
2023-01-25T07:02:11.396Z,97191.66
2023-01-25T07:04:38.996Z,97187.44
2023-01-25T07:07:08.672Z,97191.41
2023-01-25T07:09:36.598Z,97184.16
2023-01-25T07:12:05.399Z,97192.66
2023-01-25T07:14:33.255Z,97177.47
2023-01-25T07:17:02.932Z,97179.44
2023-01-25T07:19:32.793Z,97147.69
2023-01-25T07:22:00.433Z,97181.13
2023-01-25T07:24:29.628Z,97183.34
2023-01-25T07:26:57.245Z,97177.97
2023-01-25T07:29:25.014Z,97188.81
2023-01-25T07:31:52.718Z,97184.47
2023-01-25T07:34:20.481Z,97187.19
2023-01-25T07:36:49.538Z,97174.94
2023-01-25T07:39:17.260Z,97182.34
2023-01-25T07:41:44.870Z,97181.94
2023-01-25T07:44:14.295Z,97181.28
2023-01-25T07:46:47.924Z,97185.75
2023-01-25T07:49:15.780Z,97192.66
2023-01-25T07:51:43.378Z,97176.22
2023-01-25T07:54:12.982Z,97193.69
2023-01-25T07:56:40.917Z,97196.00
2023-01-25T07:59:10.494Z,97178.75
2023-01-25T08:01:38.712Z,97188.91
2023-01-25T08:04:06.618Z,97196.81
2023-01-25T08:06:38.965Z,97202.88
2023-01-25T08:09:09.672Z,97166.22
2023-01-25T08:11:38.759Z,97200.47
2023-01-25T08:14:06.374Z,97198.50
2023-01-25T08:16:34.257Z,97184.38
2023-01-25T08:19:03.878Z,97177.22
2023-01-25T08:21:33.966Z,97144.78
2023-01-25T08:24:03.527Z,97176.84
2023-01-25T08:26:31.159Z,97192.09
2023-01-25T08:29:00.202Z,97148.59
2023-01-25T08:31:30.118Z,97184.47
2023-01-25T08:33:58.723Z,97187.13
2023-01-25T08:36:27.893Z,97172.41
2023-01-25T08:38:58.452Z,97180.59
2023-01-25T08:41:27.088Z,97182.56
2023-01-25T08:43:56.159Z,97174.78
2023-01-25T08:46:30.151Z,97173.00
2023-01-25T08:48:59.179Z,97176.75
2023-01-25T08:51:27.468Z,97178.91
2023-01-25T08:53:55.555Z,97173.72
2023-01-25T08:56:23.248Z,97177.75
2023-01-25T08:58:51.571Z,97164.41
2023-01-25T09:01:21.032Z,97161.03
2023-01-25T09:03:51.718Z,97170.13
2023-01-25T09:06:20.773Z,97149.19
2023-01-25T09:08:49.011Z,97162.88
2023-01-25T09:11:18.268Z,97158.88
2023-01-25T09:13:46.071Z,97085.41
2023-01-25T09:16:16.304Z,97145.66
2023-01-25T09:18:45.562Z,97156.06
2023-01-25T09:21:16.020Z,97159.63
2023-01-25T09:23:51.338Z,97145.06
2023-01-25T09:26:25.639Z,97151.41
2023-01-25T09:28:55.101Z,97157.31
2023-01-25T09:31:24.820Z,97148.47
2023-01-25T09:34:02.964Z,97148.59
2023-01-25T09:36:31.933Z,97151.28
2023-01-25T09:38:59.880Z,97152.47
2023-01-25T09:42:03.430Z,97120.97
2023-01-25T09:44:52.364Z,97154.72
2023-01-25T09:47:26.998Z,97148.84
2023-01-25T09:50:20.665Z,97141.88
2023-01-25T09:53:06.655Z,97147.53
2023-01-25T09:55:34.969Z,97147.31
2023-01-25T09:58:04.109Z,97154.03
2023-01-25T10:00:37.041Z,97148.38
2023-01-25T10:03:12.142Z,97143.09
2023-01-25T10:05:45.848Z,97145.53
2023-01-25T10:08:25.815Z,97143.78
2023-01-25T10:10:59.708Z,97110.34
2023-01-25T10:13:31.782Z,97125.09
2023-01-25T10:16:06.483Z,97136.75
2023-01-25T10:18:41.284Z,97131.41
2023-01-25T10:21:14.054Z,97127.00
2023-01-25T10:24:11.373Z,97132.19
2023-01-25T10:26:43.943Z,97132.72
2023-01-25T10:29:16.467Z,97118.72
2023-01-25T10:31:49.051Z,97107.13
2023-01-25T10:34:21.103Z,97093.16
2023-01-25T10:36:53.348Z,97098.22
2023-01-25T10:39:22.859Z,97098.81
2023-01-25T10:41:55.854Z,97091.50
2023-01-25T10:44:26.732Z,97074.44
2023-01-25T10:47:00.662Z,97091.19
2023-01-25T10:49:41.087Z,97087.06
2023-01-25T10:52:15.419Z,97067.00
2023-01-25T10:54:44.613Z,97079.13
2023-01-25T10:57:16.840Z,97082.44
2023-01-25T10:59:47.858Z,97085.03
2023-01-25T11:02:38.033Z,97076.66
2023-01-25T11:05:31.104Z,97065.25
2023-01-25T11:07:59.926Z,97061.53
2023-01-25T11:10:32.046Z,97057.88
2023-01-25T11:13:23.079Z,97051.28
2023-01-25T11:15:52.737Z,97040.59
2023-01-25T11:18:24.785Z,97045.78
2023-01-25T11:21:07.822Z,97050.34
2023-01-25T11:23:35.637Z,97046.06
2023-01-25T11:26:15.139Z,97033.03
2023-01-25T11:28:44.373Z,97038.41
2023-01-25T11:31:14.214Z,97032.59
2023-01-25T11:33:42.333Z,97036.88
2023-01-25T11:36:23.572Z,97024.88
2023-01-25T11:39:09.254Z,96991.88
2023-01-25T11:41:53.957Z,96999.69
2023-01-25T11:44:45.047Z,97001.53
2023-01-25T11:47:23.341Z,97000.91
2023-01-25T11:50:00.974Z,97010.19
2023-01-25T11:52:37.690Z,96978.53
2023-01-25T11:55:20.429Z,96978.97
2023-01-25T11:58:00.983Z,96977.00
2023-01-25T12:00:42.685Z,96973.22
2023-01-25T12:03:28.417Z,96964.44
2023-01-25T12:06:03.745Z,96962.84
2023-01-25T12:09:03.860Z,96958.78
2023-01-25T12:11:47.495Z,96950.66
2023-01-25T12:14:32.077Z,96944.47
2023-01-25T12:17:22.968Z,96939.28
2023-01-25T12:20:31.444Z,96937.94
2023-01-25T12:23:22.033Z,96933.25
2023-01-25T12:26:00.914Z,96927.69
2023-01-25T12:28:34.171Z,96922.41
2023-01-25T12:31:08.805Z,96926.78
2023-01-25T12:33:41.861Z,96917.75
2023-01-25T12:36:15.731Z,96918.97
2023-01-25T12:38:49.194Z,96817.72
2023-01-25T12:41:27.488Z,96908.44
2023-01-25T12:44:02.280Z,96903.59
2023-01-25T12:46:38.374Z,96904.00
2023-01-25T12:49:16.485Z,96900.50
2023-01-25T12:51:46.233Z,96910.66
2023-01-25T12:54:20.528Z,96805.41
2023-01-25T12:56:58.243Z,96798.53
2023-01-25T12:59:34.628Z,96891.81
2023-01-25T13:02:19.397Z,96881.31
2023-01-25T13:05:00.594Z,96883.59
2023-01-25T13:07:34.704Z,96886.97
2023-01-25T13:10:06.757Z,96862.44
2023-01-25T13:12:53.150Z,96882.91
2023-01-25T13:15:40.820Z,96872.00
2023-01-25T13:18:39.445Z,96866.34
2023-01-25T13:21:12.327Z,96875.13
2023-01-25T13:23:47.009Z,96867.81
2023-01-25T13:26:37.875Z,96871.16
2023-01-25T13:29:05.545Z,96868.34
2023-01-25T13:31:51.808Z,96869.88
2023-01-25T13:34:52.209Z,96869.78
2023-01-25T13:37:23.619Z,96863.19
2023-01-25T13:39:53.253Z,96866.53
2023-01-25T13:42:23.642Z,96857.34
2023-01-25T13:44:54.184Z,96863.06
2023-01-25T13:47:23.938Z,96845.28
2023-01-25T13:49:58.253Z,96856.47
2023-01-25T13:52:28.182Z,96852.75
2023-01-25T13:54:57.490Z,96849.34
2023-01-25T13:57:27.127Z,96846.09
2023-01-25T14:00:10.087Z,96839.19
2023-01-25T14:02:40.688Z,96838.72
2023-01-25T14:05:18.930Z,96841.97
2023-01-25T14:07:48.730Z,96836.72
2023-01-25T14:10:23.328Z,96836.28
2023-01-25T14:12:52.607Z,96839.69
2023-01-25T14:15:23.757Z,96837.84
2023-01-25T14:18:14.586Z,96835.94
2023-01-25T14:20:42.545Z,96832.97
2023-01-25T14:23:24.657Z,96829.03
2023-01-25T14:25:53.890Z,96834.75
2023-01-25T14:28:22.648Z,96732.13
2023-01-25T14:30:55.142Z,96822.88
2023-01-25T14:33:26.222Z,96823.31
2023-01-25T14:36:00.032Z,96822.38
2023-01-25T14:38:35.185Z,96813.84
2023-01-25T14:41:08.960Z,96739.22
2023-01-25T14:43:38.319Z,96801.63
2023-01-25T14:46:26.724Z,96797.38
2023-01-25T14:49:17.801Z,96803.66
2023-01-25T14:51:47.761Z,96814.22
2023-01-25T14:54:20.807Z,96810.03
2023-01-25T14:56:51.583Z,96806.44
2023-01-25T14:59:26.975Z,96800.84
2023-01-25T15:01:57.027Z,96810.66
2023-01-25T15:04:24.896Z,96805.94
2023-01-25T15:06:54.637Z,96813.16
2023-01-25T15:09:42.277Z,96810.78
2023-01-25T15:12:34.444Z,96807.31
2023-01-25T15:15:02.768Z,96804.38
2023-01-25T15:17:41.294Z,96796.00
2023-01-25T15:20:28.220Z,96778.00
2023-01-25T15:22:57.426Z,96780.50
2023-01-25T15:25:26.464Z,96773.50
2023-01-25T15:27:54.671Z,96743.81
2023-01-25T15:30:22.332Z,96773.31
2023-01-25T15:32:50.425Z,96772.09
2023-01-25T15:35:19.701Z,96760.84
2023-01-25T15:37:49.265Z,96747.28
2023-01-25T15:40:18.086Z,96742.44
2023-01-25T15:42:47.283Z,96757.16
2023-01-25T15:45:14.914Z,96767.41
2023-01-25T15:47:42.579Z,96769.41
2023-01-25T15:50:18.649Z,96768.75
2023-01-25T15:52:46.419Z,96770.19
2023-01-25T15:55:15.212Z,96761.34
2023-01-25T15:57:44.575Z,96762.53
2023-01-25T16:00:19.470Z,96762.22
2023-01-25T16:02:47.252Z,96754.28
2023-01-25T16:05:15.046Z,96759.28
2023-01-25T16:07:45.175Z,96736.84
2023-01-25T16:10:24.821Z,96749.50
2023-01-25T16:12:52.613Z,96752.09
2023-01-25T16:15:21.568Z,96741.72
2023-01-25T16:17:49.192Z,96750.75
2023-01-25T16:20:19.115Z,96749.94
2023-01-25T16:22:47.279Z,96706.66
2023-01-25T16:25:15.146Z,96724.09
2023-01-25T16:27:42.813Z,96743.72
2023-01-25T16:30:18.692Z,96730.09
2023-01-25T16:32:50.017Z,96741.31
2023-01-25T16:35:17.986Z,96742.91
2023-01-25T16:37:45.922Z,96715.06
2023-01-25T16:40:23.406Z,96729.78
2023-01-25T16:42:51.441Z,96724.94
2023-01-25T16:45:20.280Z,96667.75
2023-01-25T16:47:49.366Z,96724.16
2023-01-25T16:50:19.697Z,96726.56
2023-01-25T16:52:49.903Z,96720.13
2023-01-25T16:55:18.591Z,96714.53
2023-01-25T16:57:50.843Z,96717.53
2023-01-25T17:00:19.615Z,96701.28
2023-01-25T17:02:58.717Z,96645.56
2023-01-25T17:05:31.947Z,96702.66
2023-01-25T17:07:59.739Z,96688.03
2023-01-25T17:10:28.793Z,96693.66
2023-01-25T17:12:56.416Z,96636.97
2023-01-25T17:15:24.098Z,96695.59
2023-01-25T17:17:51.758Z,96678.19
2023-01-25T17:20:19.431Z,96690.63
2023-01-25T17:22:51.032Z,96673.66
2023-01-25T17:25:18.812Z,96678.25
2023-01-25T17:27:47.041Z,96672.50
2023-01-25T17:30:15.409Z,96676.66
2023-01-25T17:32:43.025Z,96672.88
2023-01-25T17:35:10.773Z,96676.88
2023-01-25T17:37:41.041Z,96652.63
2023-01-25T17:40:12.378Z,96666.84
2023-01-25T17:42:40.313Z,96637.84
2023-01-25T17:45:09.308Z,96682.72
2023-01-25T17:47:37.185Z,96655.16
2023-01-25T17:50:05.127Z,96663.13
2023-01-25T17:52:32.760Z,96663.75
2023-01-25T17:55:00.469Z,96651.72
2023-01-25T17:57:31.555Z,96649.53
2023-01-25T17:59:59.352Z,96647.19
2023-01-25T18:02:27.041Z,96644.75
2023-01-25T18:04:54.763Z,96594.34
2023-01-25T18:07:22.420Z,96642.53
2023-01-25T18:09:50.109Z,96620.31
2023-01-25T18:12:20.526Z,96645.72
2023-01-25T18:14:49.697Z,96636.16
2023-01-25T18:17:17.362Z,96635.41
2023-01-25T18:19:45.896Z,96605.38
2023-01-25T18:22:14.681Z,96627.59
2023-01-25T18:24:43.994Z,96604.78
2023-01-25T18:27:19.688Z,96624.78
2023-01-25T18:29:55.417Z,96626.47
2023-01-25T18:32:23.076Z,96612.03
2023-01-25T18:34:50.875Z,96580.59
2023-01-25T18:37:21.698Z,96610.41
2023-01-25T18:39:51.214Z,96612.81
2023-01-25T18:42:20.068Z,96498.03
2023-01-25T18:44:49.258Z,96596.59
2023-01-25T18:47:18.938Z,96613.56
2023-01-25T18:49:47.367Z,96609.13
2023-01-25T18:52:16.548Z,96594.56
2023-01-25T18:54:44.510Z,96445.47
2023-01-25T18:57:13.193Z,96542.47
2023-01-25T18:59:41.241Z,96597.44
2023-01-25T19:02:12.510Z,96595.66
2023-01-25T19:04:40.329Z,96595.00
2023-01-25T19:07:08.420Z,96503.25
2023-01-25T19:09:36.179Z,96570.59
2023-01-25T19:12:03.949Z,96585.00
2023-01-25T19:14:31.721Z,96466.25
2023-01-25T19:16:59.433Z,96458.84
2023-01-25T19:19:32.213Z,96575.06
2023-01-25T19:22:01.544Z,96567.09
2023-01-25T19:24:30.938Z,96524.16
2023-01-25T19:26:59.459Z,96562.28
2023-01-25T19:29:27.683Z,96536.13
2023-01-25T19:31:55.612Z,96479.34
2023-01-25T19:34:23.338Z,96530.69
2023-01-25T19:36:53.865Z,96432.59
2023-01-25T19:39:22.002Z,96406.25
2023-01-25T19:41:52.495Z,96448.09
2023-01-25T19:44:20.639Z,96437.75
2023-01-25T19:46:49.061Z,96439.78
2023-01-25T19:49:16.823Z,96491.38
2023-01-25T19:51:48.852Z,96545.94
2023-01-25T19:54:18.887Z,96527.69
2023-01-25T19:56:48.459Z,96438.69
2023-01-25T19:59:17.610Z,96480.63
2023-01-25T20:01:46.229Z,96511.19
2023-01-25T20:04:16.359Z,96394.16
2023-01-25T20:06:44.880Z,96507.78
2023-01-25T20:09:14.222Z,96511.59
2023-01-25T20:11:43.597Z,96432.25
2023-01-25T20:14:13.422Z,96472.19
2023-01-25T20:16:41.807Z,96454.53
2023-01-25T20:19:12.353Z,96391.59
2023-01-25T20:21:40.263Z,96513.19
2023-01-25T20:24:10.375Z,96510.84
2023-01-25T20:26:43.052Z,96511.00
2023-01-25T20:29:14.006Z,96487.03
2023-01-25T20:31:44.546Z,96502.59
2023-01-25T20:34:14.879Z,96505.63
2023-01-25T20:36:44.416Z,96500.03
2023-01-25T20:39:15.604Z,96497.81
2023-01-25T20:41:44.275Z,96372.97
2023-01-25T20:44:15.667Z,96450.25
2023-01-25T20:46:44.486Z,96479.81
2023-01-25T20:49:16.489Z,96452.25
2023-01-25T20:51:45.793Z,96486.44
2023-01-25T20:54:14.457Z,96490.03
2023-01-25T20:56:43.169Z,96468.47
2023-01-25T20:59:11.332Z,96471.06
2023-01-25T21:01:41.154Z,96474.28
2023-01-25T21:04:11.853Z,96490.81
2023-01-25T21:06:40.391Z,96372.75
2023-01-25T21:09:08.509Z,96456.47
2023-01-25T21:11:36.838Z,96359.69
2023-01-25T21:14:05.840Z,96347.91
2023-01-25T21:16:35.416Z,96382.41
2023-01-25T21:19:07.935Z,96429.78
2023-01-25T21:21:38.480Z,96441.75
2023-01-25T21:24:07.863Z,96449.13
2023-01-25T21:26:38.612Z,96388.03
2023-01-25T21:29:08.063Z,96461.91
2023-01-25T21:31:38.319Z,96419.59
2023-01-25T21:34:09.308Z,96312.19
2023-01-25T21:36:37.368Z,96445.72
2023-01-25T21:39:05.867Z,96443.34
2023-01-25T21:41:34.617Z,96449.53
2023-01-25T21:44:21.057Z,96450.53
2023-01-25T21:47:16.254Z,96442.53
2023-01-25T21:49:57.125Z,96345.91
2023-01-25T21:52:25.633Z,96307.63
2023-01-25T21:54:55.622Z,96440.19
2023-01-25T21:57:24.369Z,96367.88
2023-01-25T21:59:54.171Z,96436.38
2023-01-25T22:02:22.630Z,96384.91
2023-01-25T22:04:52.511Z,96340.97
2023-01-25T22:07:20.866Z,96431.16
2023-01-25T22:09:50.650Z,96398.84
2023-01-25T22:12:19.057Z,96417.41
2023-01-25T22:14:47.725Z,96346.09
2023-01-25T22:17:16.227Z,96373.47
2023-01-25T22:19:44.884Z,96416.25
2023-01-25T22:22:14.558Z,96320.22
2023-01-25T22:24:43.030Z,96269.94
2023-01-25T22:27:38.456Z,96405.22
2023-01-25T22:30:08.412Z,96364.31
2023-01-25T22:32:37.068Z,96309.22
2023-01-25T22:35:05.969Z,96311.84
2023-01-25T22:37:38.296Z,96360.34
2023-01-25T22:40:09.616Z,96404.22
2023-01-25T22:42:41.026Z,96396.06
2023-01-25T22:45:09.807Z,96383.88
2023-01-25T22:47:38.294Z,96375.31
2023-01-25T22:50:07.616Z,96387.06
2023-01-25T22:52:37.055Z,96386.28
2023-01-25T22:55:05.631Z,96294.69
2023-01-25T22:57:34.037Z,96371.31
2023-01-25T23:00:02.549Z,96380.50
2023-01-25T23:02:31.010Z,96362.38
2023-01-25T23:04:59.478Z,96356.97
2023-01-25T23:07:27.538Z,96240.88
2023-01-25T23:09:56.969Z,96340.97
2023-01-25T23:12:25.148Z,96248.03
2023-01-25T23:14:54.457Z,96244.25
2023-01-25T23:17:42.456Z,96339.81
2023-01-25T23:20:12.927Z,96332.47
2023-01-25T23:22:41.612Z,96317.88
2023-01-25T23:25:12.445Z,96331.44
2023-01-25T23:27:42.009Z,96337.81
2023-01-25T23:30:11.613Z,96293.38
2023-01-25T23:32:40.055Z,96333.47
2023-01-25T23:35:09.154Z,96339.06
2023-01-25T23:37:38.944Z,96329.03
2023-01-25T23:40:09.301Z,96319.50
2023-01-25T23:42:39.839Z,96204.44
2023-01-25T23:45:11.899Z,96331.66
2023-01-25T23:47:40.644Z,96331.88
2023-01-25T23:50:10.404Z,96306.13
2023-01-25T23:52:39.619Z,96286.56
2023-01-25T23:55:09.325Z,96216.22
2023-01-25T23:57:39.775Z,96232.13
